sensor_id;sensor_type;location;lat;lon;timestamp;pressure;altitude;pressure_sealevel;temperature;humidity
13974;BME280;7060;43.770;4.008;2023-10-13T00:00:36;101551.47;;;16.80;71.89
13974;BME280;7060;43.770;4.008;2023-10-13T00:03:08;101547.25;;;16.78;71.76
13974;BME280;7060;43.770;4.008;2023-10-13T00:05:43;101549.75;;;16.79;71.90
13974;BME280;7060;43.770;4.008;2023-10-13T00:08:12;101559.72;;;16.79;71.93
13974;BME280;7060;43.770;4.008;2023-10-13T00:10:42;101562.63;;;16.77;71.88
13974;BME280;7060;43.770;4.008;2023-10-13T00:13:11;101561.56;;;16.78;72.02
13974;BME280;7060;43.770;4.008;2023-10-13T00:15:48;101550.13;;;16.76;71.98
13974;BME280;7060;43.770;4.008;2023-10-13T00:18:26;101555.69;;;16.75;72.04
13974;BME280;7060;43.770;4.008;2023-10-13T00:21:01;101555.19;;;16.71;71.86
13974;BME280;7060;43.770;4.008;2023-10-13T00:23:40;101564.63;;;16.67;72.19
13974;BME280;7060;43.770;4.008;2023-10-13T00:26:20;101538.22;;;16.53;72.46
13974;BME280;7060;43.770;4.008;2023-10-13T00:28:54;101563.94;;;16.65;72.63
13974;BME280;7060;43.770;4.008;2023-10-13T00:31:39;101550.69;;;16.54;72.43
13974;BME280;7060;43.770;4.008;2023-10-13T00:34:12;101569.69;;;16.70;72.56
13974;BME280;7060;43.770;4.008;2023-10-13T00:36:47;101567.50;;;16.74;72.54
13974;BME280;7060;43.770;4.008;2023-10-13T00:39:37;101531.97;;;16.52;72.47
13974;BME280;7060;43.770;4.008;2023-10-13T00:42:12;101564.28;;;16.78;72.66
13974;BME280;7060;43.770;4.008;2023-10-13T00:44:48;101562.09;;;16.82;72.45
13974;BME280;7060;43.770;4.008;2023-10-13T00:47:19;101538.81;;;16.73;72.28
13974;BME280;7060;43.770;4.008;2023-10-13T00:50:06;101563.09;;;16.81;72.44
13974;BME280;7060;43.770;4.008;2023-10-13T00:52:38;101552.31;;;16.81;72.20
13974;BME280;7060;43.770;4.008;2023-10-13T00:55:10;101555.38;;;16.78;72.24
13974;BME280;7060;43.770;4.008;2023-10-13T00:57:41;101551.78;;;16.69;72.15
13974;BME280;7060;43.770;4.008;2023-10-13T01:00:11;101565.66;;;16.74;72.31
13974;BME280;7060;43.770;4.008;2023-10-13T01:02:47;101565.13;;;16.79;72.37
13974;BME280;7060;43.770;4.008;2023-10-13T01:05:24;101562.63;;;16.85;72.12
13974;BME280;7060;43.770;4.008;2023-10-13T01:07:53;101557.03;;;16.87;72.32
13974;BME280;7060;43.770;4.008;2023-10-13T01:10:22;101563.28;;;16.87;72.47
13974;BME280;7060;43.770;4.008;2023-10-13T01:12:56;101555.88;;;16.89;72.64
13974;BME280;7060;43.770;4.008;2023-10-13T01:15:26;101552.84;;;16.92;72.50
13974;BME280;7060;43.770;4.008;2023-10-13T01:18:07;101554.19;;;16.97;72.51
13974;BME280;7060;43.770;4.008;2023-10-13T01:20:39;101551.69;;;17.03;73.09
13974;BME280;7060;43.770;4.008;2023-10-13T01:23:14;101545.75;;;17.08;73.29
13974;BME280;7060;43.770;4.008;2023-10-13T01:25:46;101538.31;;;17.10;73.39
13974;BME280;7060;43.770;4.008;2023-10-13T01:28:15;101458.78;;;16.64;74.03
13974;BME280;7060;43.770;4.008;2023-10-13T01:30:45;101528.84;;;17.06;74.10
13974;BME280;7060;43.770;4.008;2023-10-13T01:33:17;101529.19;;;17.11;74.09
13974;BME280;7060;43.770;4.008;2023-10-13T01:35:55;101530.72;;;17.21;74.08
13974;BME280;7060;43.770;4.008;2023-10-13T01:38:28;101532.75;;;17.27;73.87
13974;BME280;7060;43.770;4.008;2023-10-13T01:41:00;101529.88;;;17.29;73.70
13974;BME280;7060;43.770;4.008;2023-10-13T01:43:32;101519.91;;;17.30;73.70
13974;BME280;7060;43.770;4.008;2023-10-13T01:46:02;101517.38;;;17.28;73.34
13974;BME280;7060;43.770;4.008;2023-10-13T01:48:31;101521.09;;;17.27;73.49
13974;BME280;7060;43.770;4.008;2023-10-13T01:51:06;101518.91;;;17.31;73.78
13974;BME280;7060;43.770;4.008;2023-10-13T01:53:39;101524.09;;;17.40;74.27
13974;BME280;7060;43.770;4.008;2023-10-13T01:56:09;101522.41;;;17.47;74.45
13974;BME280;7060;43.770;4.008;2023-10-13T01:58:41;101520.22;;;17.51;74.80
13974;BME280;7060;43.770;4.008;2023-10-13T02:01:09;101517.84;;;17.56;74.85
13974;BME280;7060;43.770;4.008;2023-10-13T02:03:39;101511.59;;;17.64;75.11
13974;BME280;7060;43.770;4.008;2023-10-13T02:06:14;101510.72;;;17.71;74.99
13974;BME280;7060;43.770;4.008;2023-10-13T02:08:46;101510.88;;;17.78;74.73
13974;BME280;7060;43.770;4.008;2023-10-13T02:11:18;101510.72;;;17.79;75.14
13974;BME280;7060;43.770;4.008;2023-10-13T02:13:46;101508.84;;;17.80;75.58
13974;BME280;7060;43.770;4.008;2023-10-13T02:16:18;101511.06;;;17.76;75.85
13974;BME280;7060;43.770;4.008;2023-10-13T02:18:48;101509.38;;;17.75;76.29
13974;BME280;7060;43.770;4.008;2023-10-13T02:21:19;101504.81;;;17.76;76.32
13974;BME280;7060;43.770;4.008;2023-10-13T02:23:48;101510.22;;;17.76;76.70
13974;BME280;7060;43.770;4.008;2023-10-13T02:26:29;101507.34;;;17.77;76.71
13974;BME280;7060;43.770;4.008;2023-10-13T02:29:01;101506.16;;;17.80;76.63
13974;BME280;7060;43.770;4.008;2023-10-13T02:31:32;101504.97;;;17.82;76.47
13974;BME280;7060;43.770;4.008;2023-10-13T02:34:01;101503.94;;;17.83;76.70
13974;BME280;7060;43.770;4.008;2023-10-13T02:36:34;101482.31;;;17.75;76.28
13974;BME280;7060;43.770;4.008;2023-10-13T02:39:16;101503.59;;;17.86;76.53
13974;BME280;7060;43.770;4.008;2023-10-13T02:41:45;101504.59;;;17.85;76.66
13974;BME280;7060;43.770;4.008;2023-10-13T02:44:16;101501.72;;;17.87;76.54
13974;BME280;7060;43.770;4.008;2023-10-13T02:46:55;101500.03;;;17.86;76.83
13974;BME280;7060;43.770;4.008;2023-10-13T02:49:24;101498.81;;;17.88;76.64
13974;BME280;7060;43.770;4.008;2023-10-13T02:51:54;101497.47;;;17.92;76.70
13974;BME280;7060;43.770;4.008;2023-10-13T02:54:27;101473.47;;;17.89;76.51
13974;BME280;7060;43.770;4.008;2023-10-13T02:56:58;101496.41;;;18.02;76.37
13974;BME280;7060;43.770;4.008;2023-10-13T02:59:32;101495.03;;;18.06;76.01
13974;BME280;7060;43.770;4.008;2023-10-13T03:02:07;101494.03;;;18.07;76.24
13974;BME280;7060;43.770;4.008;2023-10-13T03:04:47;101405.81;;;17.58;76.11
13974;BME280;7060;43.770;4.008;2023-10-13T03:07:16;101485.56;;;18.10;76.07
13974;BME280;7060;43.770;4.008;2023-10-13T03:09:52;101487.06;;;18.12;75.97
13974;BME280;7060;43.770;4.008;2023-10-13T03:12:25;101477.63;;;18.08;76.16
13974;BME280;7060;43.770;4.008;2023-10-13T03:14:53;101479.31;;;18.09;76.40
13974;BME280;7060;43.770;4.008;2023-10-13T03:17:24;101481.84;;;18.11;76.26
13974;BME280;7060;43.770;4.008;2023-10-13T03:20:02;101483.69;;;18.10;76.55
13974;BME280;7060;43.770;4.008;2023-10-13T03:22:32;101481.00;;;18.10;76.77
13974;BME280;7060;43.770;4.008;2023-10-13T03:25:04;101471.50;;;18.14;76.86
13974;BME280;7060;43.770;4.008;2023-10-13T03:27:33;101468.41;;;18.17;76.96
13974;BME280;7060;43.770;4.008;2023-10-13T03:30:29;101471.13;;;18.17;77.01
13974;BME280;7060;43.770;4.008;2023-10-13T03:33:03;101471.44;;;18.22;76.99
13974;BME280;7060;43.770;4.008;2023-10-13T03:35:35;101448.81;;;18.15;76.96
13974;BME280;7060;43.770;4.008;2023-10-13T03:38:10;101466.69;;;18.24;77.08
13974;BME280;7060;43.770;4.008;2023-10-13T03:40:50;101461.28;;;18.24;77.52
13974;BME280;7060;43.770;4.008;2023-10-13T03:43:34;101458.25;;;18.19;77.74
13974;BME280;7060;43.770;4.008;2023-10-13T03:46:14;101465.50;;;18.27;77.98
13974;BME280;7060;43.770;4.008;2023-10-13T03:48:49;101473.44;;;18.28;77.96
13974;BME280;7060;43.770;4.008;2023-10-13T03:51:22;101467.66;;;18.32;78.00
13974;BME280;7060;43.770;4.008;2023-10-13T03:53:59;101469.84;;;18.36;77.91
13974;BME280;7060;43.770;4.008;2023-10-13T03:56:36;101466.59;;;18.41;77.92
13974;BME280;7060;43.770;4.008;2023-10-13T03:59:08;101462.66;;;18.43;78.06
13974;BME280;7060;43.770;4.008;2023-10-13T04:01:47;101456.25;;;18.44;78.23
13974;BME280;7060;43.770;4.008;2023-10-13T04:04:20;101454.19;;;18.46;78.27
13974;BME280;7060;43.770;4.008;2023-10-13T04:07:02;101425.91;;;18.26;78.29
13974;BME280;7060;43.770;4.008;2023-10-13T04:09:45;101453.16;;;18.47;78.47
13974;BME280;7060;43.770;4.008;2023-10-13T04:12:39;101464.66;;;18.49;78.38
13974;BME280;7060;43.770;4.008;2023-10-13T04:15:26;101465.50;;;18.50;78.60
13974;BME280;7060;43.770;4.008;2023-10-13T04:18:04;101457.06;;;18.53;78.51
13974;BME280;7060;43.770;4.008;2023-10-13T04:20:53;101458.75;;;18.54;78.32
13974;BME280;7060;43.770;4.008;2023-10-13T04:23:35;101458.94;;;18.52;78.56
13974;BME280;7060;43.770;4.008;2023-10-13T04:26:24;101460.63;;;18.53;78.69
13974;BME280;7060;43.770;4.008;2023-10-13T04:29:05;101455.03;;;18.55;78.81
13974;BME280;7060;43.770;4.008;2023-10-13T04:31:38;101466.50;;;18.57;78.71
13974;BME280;7060;43.770;4.008;2023-10-13T04:34:26;101463.44;;;18.60;78.54
13974;BME280;7060;43.770;4.008;2023-10-13T04:36:58;101467.50;;;18.64;78.53
13974;BME280;7060;43.770;4.008;2023-10-13T04:39:50;101465.13;;;18.61;78.68
13974;BME280;7060;43.770;4.008;2023-10-13T04:42:29;101470.00;;;18.66;78.61
13974;BME280;7060;43.770;4.008;2023-10-13T04:45:23;101458.69;;;18.62;78.68
13974;BME280;7060;43.770;4.008;2023-10-13T04:48:06;101467.13;;;18.67;78.68
13974;BME280;7060;43.770;4.008;2023-10-13T04:51:00;101470.50;;;18.69;78.50
13974;BME280;7060;43.770;4.008;2023-10-13T04:54:12;101473.56;;;18.66;78.83
13974;BME280;7060;43.770;4.008;2023-10-13T04:56:53;101469.66;;;18.69;78.70
13974;BME280;7060;43.770;4.008;2023-10-13T04:59:48;101464.03;;;18.70;78.56
13974;BME280;7060;43.770;4.008;2023-10-13T05:02:36;101462.66;;;18.74;78.54
13974;BME280;7060;43.770;4.008;2023-10-13T05:05:45;101435.41;;;18.53;78.53
13974;BME280;7060;43.770;4.008;2023-10-13T05:08:13;101461.44;;;18.77;78.24
13974;BME280;7060;43.770;4.008;2023-10-13T05:11:03;101460.25;;;18.79;78.21
13974;BME280;7060;43.770;4.008;2023-10-13T05:13:50;101462.28;;;18.77;78.38
13974;BME280;7060;43.770;4.008;2023-10-13T05:16:36;101465.00;;;18.77;78.55
13974;BME280;7060;43.770;4.008;2023-10-13T05:19:24;101466.69;;;18.78;78.58
13974;BME280;7060;43.770;4.008;2023-10-13T05:22:10;101461.63;;;18.75;78.69
13974;BME280;7060;43.770;4.008;2023-10-13T05:24:56;101456.56;;;18.72;78.92
13974;BME280;7060;43.770;4.008;2023-10-13T05:27:42;101466.19;;;18.75;78.99
13974;BME280;7060;43.770;4.008;2023-10-13T05:30:32;101457.59;;;18.71;79.14
13974;BME280;7060;43.770;4.008;2023-10-13T05:33:18;101460.31;;;18.71;79.15
13974;BME280;7060;43.770;4.008;2023-10-13T05:36:10;101462.66;;;18.74;78.90
13974;BME280;7060;43.770;4.008;2023-10-13T05:38:58;101456.56;;;18.72;79.19
13974;BME280;7060;43.770;4.008;2023-10-13T05:41:47;101454.69;;;18.73;79.31
13974;BME280;7060;43.770;4.008;2023-10-13T05:44:33;101451.16;;;18.72;79.29
13974;BME280;7060;43.770;4.008;2023-10-13T05:47:07;101454.16;;;18.77;78.96
13974;BME280;7060;43.770;4.008;2023-10-13T05:50:11;101464.34;;;18.75;79.23
13974;BME280;7060;43.770;4.008;2023-10-13T05:53:18;101459.28;;;18.72;79.31
13974;BME280;7060;43.770;4.008;2023-10-13T05:56:04;101463.00;;;18.71;79.35
13974;BME280;7060;43.770;4.008;2023-10-13T05:58:50;101469.28;;;18.72;79.29
13974;BME280;7060;43.770;4.008;2023-10-13T06:01:33;101471.78;;;18.73;79.33
13974;BME280;7060;43.770;4.008;2023-10-13T06:04:19;101476.38;;;18.73;79.13
13974;BME280;7060;43.770;4.008;2023-10-13T06:07:05;101470.97;;;18.73;79.12
13974;BME280;7060;43.770;4.008;2023-10-13T06:09:54;101474.16;;;18.76;78.99
13974;BME280;7060;43.770;4.008;2023-10-13T06:12:40;101479.38;;;18.78;79.06
13974;BME280;7060;43.770;4.008;2023-10-13T06:15:26;101483.41;;;18.82;78.82
13974;BME280;7060;43.770;4.008;2023-10-13T06:18:14;101489.31;;;18.85;78.56
13974;BME280;7060;43.770;4.008;2023-10-13T06:21:01;101495.41;;;18.87;78.10
13974;BME280;7060;43.770;4.008;2023-10-13T06:24:01;101485.09;;;18.83;78.17
13974;BME280;7060;43.770;4.008;2023-10-13T06:26:49;101497.81;;;18.82;78.02
13974;BME280;7060;43.770;4.008;2023-10-13T06:29:35;101511.88;;;18.78;78.22
13974;BME280;7060;43.770;4.008;2023-10-13T06:32:04;101504.25;;;18.81;78.23
13974;BME280;7060;43.770;4.008;2023-10-13T06:34:41;101507.63;;;18.83;78.29
13974;BME280;7060;43.770;4.008;2023-10-13T06:37:12;101507.09;;;18.88;77.96
13974;BME280;7060;43.770;4.008;2023-10-13T06:40:00;101510.47;;;18.90;77.86
13974;BME280;7060;43.770;4.008;2023-10-13T06:42:35;101513.00;;;18.91;77.73
13974;BME280;7060;43.770;4.008;2023-10-13T06:45:10;101507.94;;;18.88;77.87
13974;BME280;7060;43.770;4.008;2023-10-13T06:47:41;101514.84;;;18.91;77.91
13974;BME280;7060;43.770;4.008;2023-10-13T06:50:11;101515.03;;;18.89;78.04
13974;BME280;7060;43.770;4.008;2023-10-13T06:52:44;101512.16;;;18.91;78.20
13974;BME280;7060;43.770;4.008;2023-10-13T06:55:14;101527.19;;;18.93;78.11
13974;BME280;7060;43.770;4.008;2023-10-13T06:57:46;101519.34;;;18.99;78.01
13974;BME280;7060;43.770;4.008;2023-10-13T07:00:18;101517.03;;;18.96;77.88
13974;BME280;7060;43.770;4.008;2023-10-13T07:02:55;101519.53;;;18.97;77.96
13974;BME280;7060;43.770;4.008;2023-10-13T07:05:35;101529.34;;;18.98;77.99
13974;BME280;7060;43.770;4.008;2023-10-13T07:08:06;101523.56;;;19.01;78.06
13974;BME280;7060;43.770;4.008;2023-10-13T07:10:34;101527.13;;;19.02;77.94
13974;BME280;7060;43.770;4.008;2023-10-13T07:13:13;101533.00;;;19.05;77.98
13974;BME280;7060;43.770;4.008;2023-10-13T07:15:45;101524.88;;;19.05;77.72
13974;BME280;7060;43.770;4.008;2023-10-13T07:18:15;101527.53;;;19.13;77.96
13974;BME280;7060;43.770;4.008;2023-10-13T07:20:45;101534.28;;;19.17;77.77
13974;BME280;7060;43.770;4.008;2023-10-13T07:23:14;101537.28;;;19.22;77.73
13974;BME280;7060;43.770;4.008;2023-10-13T07:25:54;101523.81;;;19.29;77.47
13974;BME280;7060;43.770;4.008;2023-10-13T07:28:31;101530.72;;;19.40;77.69
13974;BME280;7060;43.770;4.008;2023-10-13T07:31:04;101533.63;;;19.53;77.48
13974;BME280;7060;43.770;4.008;2023-10-13T07:33:43;101530.47;;;19.64;77.17
13974;BME280;7060;43.770;4.008;2023-10-13T07:36:12;101539.38;;;19.73;76.56
13974;BME280;7060;43.770;4.008;2023-10-13T07:38:55;101549.84;;;19.76;76.13
13974;BME280;7060;43.770;4.008;2023-10-13T07:41:50;101544.78;;;19.73;75.86
13974;BME280;7060;43.770;4.008;2023-10-13T07:44:33;101548.53;;;19.72;75.96
13974;BME280;7060;43.770;4.008;2023-10-13T07:47:07;101549.00;;;19.75;75.82
13974;BME280;7060;43.770;4.008;2023-10-13T07:49:38;101547.03;;;19.84;75.74
13974;BME280;7060;43.770;4.008;2023-10-13T07:52:09;101554.25;;;19.91;75.45
13974;BME280;7060;43.770;4.008;2023-10-13T07:54:56;101552.19;;;19.93;75.38
13974;BME280;7060;43.770;4.008;2023-10-13T07:57:27;101557.34;;;20.03;75.19
13974;BME280;7060;43.770;4.008;2023-10-13T07:59:59;101559.47;;;20.08;74.51
13974;BME280;7060;43.770;4.008;2023-10-13T08:02:37;101559.94;;;20.11;74.59
13974;BME280;7060;43.770;4.008;2023-10-13T08:05:19;101560.88;;;20.18;74.39
13974;BME280;7060;43.770;4.008;2023-10-13T08:07:56;101559.97;;;20.26;74.28
13974;BME280;7060;43.770;4.008;2023-10-13T08:10:26;101567.56;;;20.31;73.94
13974;BME280;7060;43.770;4.008;2023-10-13T08:12:57;101571.81;;;20.40;73.77
13974;BME280;7060;43.770;4.008;2023-10-13T08:15:27;101566.09;;;20.49;73.30
13974;BME280;7060;43.770;4.008;2023-10-13T08:18:00;101568.91;;;20.56;72.97
13974;BME280;7060;43.770;4.008;2023-10-13T08:20:45;101570.59;;;20.57;72.75
13974;BME280;7060;43.770;4.008;2023-10-13T08:23:14;101576.88;;;20.57;72.43
13974;BME280;7060;43.770;4.008;2023-10-13T08:26:09;101570.97;;;20.54;72.33
13974;BME280;7060;43.770;4.008;2023-10-13T08:28:55;101573.88;;;20.52;72.29
13974;BME280;7060;43.770;4.008;2023-10-13T08:31:27;101574.34;;;20.56;72.16
13974;BME280;7060;43.770;4.008;2023-10-13T08:33:57;101571.66;;;20.62;72.27
13974;BME280;7060;43.770;4.008;2023-10-13T08:36:34;101572.78;;;20.68;72.11
13974;BME280;7060;43.770;4.008;2023-10-13T08:39:05;101569.22;;;20.68;71.94
13974;BME280;7060;43.770;4.008;2023-10-13T08:42:05;101565.66;;;20.67;72.06
13974;BME280;7060;43.770;4.008;2023-10-13T08:44:44;101570.72;;;20.70;71.94
13974;BME280;7060;43.770;4.008;2023-10-13T08:47:21;101553.97;;;20.67;71.67
13974;BME280;7060;43.770;4.008;2023-10-13T08:49:53;101562.47;;;20.78;71.65
13974;BME280;7060;43.770;4.008;2023-10-13T08:52:38;101556.91;;;20.86;71.80
13974;BME280;7060;43.770;4.008;2023-10-13T08:55:17;101557.16;;;20.91;71.59
13974;BME280;7060;43.770;4.008;2023-10-13T08:58:07;101564.25;;;20.92;70.39
13974;BME280;7060;43.770;4.008;2023-10-13T09:00:42;101562.31;;;21.01;70.29
13974;BME280;7060;43.770;4.008;2023-10-13T09:03:25;101559.28;;;21.11;69.93
13974;BME280;7060;43.770;4.008;2023-10-13T09:06:08;101554.31;;;21.21;69.59
13974;BME280;7060;43.770;4.008;2023-10-13T09:08:42;101556.53;;;21.32;68.82
13974;BME280;7060;43.770;4.008;2023-10-13T09:11:33;101557.66;;;21.44;68.62
13974;BME280;7060;43.770;4.008;2023-10-13T09:14:17;101560.50;;;21.57;68.08
13974;BME280;7060;43.770;4.008;2023-10-13T09:17:04;101546.53;;;21.67;67.77
13974;BME280;7060;43.770;4.008;2023-10-13T09:19:49;101548.63;;;21.72;67.38
13974;BME280;7060;43.770;4.008;2023-10-13T09:22:24;101548.25;;;21.75;67.50
13974;BME280;7060;43.770;4.008;2023-10-13T09:24:56;101541.00;;;21.82;66.61
13974;BME280;7060;43.770;4.008;2023-10-13T09:27:27;101539.13;;;21.82;66.17
13974;BME280;7060;43.770;4.008;2023-10-13T09:29:57;101489.94;;;21.56;66.13
13974;BME280;7060;43.770;4.008;2023-10-13T09:32:32;101537.88;;;21.85;66.05
13974;BME280;7060;43.770;4.008;2023-10-13T09:35:17;101536.63;;;21.87;65.73
13974;BME280;7060;43.770;4.008;2023-10-13T09:37:46;101539.75;;;21.84;65.76
13974;BME280;7060;43.770;4.008;2023-10-13T09:40:16;101533.72;;;21.89;66.17
13974;BME280;7060;43.770;4.008;2023-10-13T09:42:55;101532.09;;;21.94;65.72
13974;BME280;7060;43.770;4.008;2023-10-13T09:45:28;101539.03;;;22.04;65.52
13974;BME280;7060;43.770;4.008;2023-10-13T09:48:01;101531.72;;;22.11;65.36
13974;BME280;7060;43.770;4.008;2023-10-13T09:50:37;101527.97;;;22.12;65.17
13974;BME280;7060;43.770;4.008;2023-10-13T09:53:07;101528.81;;;22.12;65.42
13974;BME280;7060;43.770;4.008;2023-10-13T09:55:41;101528.00;;;22.18;65.84
13974;BME280;7060;43.770;4.008;2023-10-13T09:58:13;101526.56;;;22.29;65.36
13974;BME280;7060;43.770;4.008;2023-10-13T10:00:48;101529.31;;;22.36;65.28
13974;BME280;7060;43.770;4.008;2023-10-13T10:03:25;101523.69;;;22.44;65.25
13974;BME280;7060;43.770;4.008;2023-10-13T10:06:21;101516.44;;;22.64;64.13
13974;BME280;7060;43.770;4.008;2023-10-13T10:09:04;101515.19;;;22.80;63.59
13974;BME280;7060;43.770;4.008;2023-10-13T10:11:59;101511.66;;;22.86;63.52
13974;BME280;7060;43.770;4.008;2023-10-13T10:14:47;101511.03;;;22.90;62.96
13974;BME280;7060;43.770;4.008;2023-10-13T10:17:23;101514.59;;;22.84;62.94
13974;BME280;7060;43.770;4.008;2023-10-13T10:19:57;101518.56;;;22.88;63.49
13974;BME280;7060;43.770;4.008;2023-10-13T10:22:29;101512.50;;;22.86;62.91
13974;BME280;7060;43.770;4.008;2023-10-13T10:25:02;101510.59;;;22.87;63.04
13974;BME280;7060;43.770;4.008;2023-10-13T10:27:31;101494.22;;;22.80;62.81
13974;BME280;7060;43.770;4.008;2023-10-13T10:30:01;101519.03;;;22.99;62.58
13974;BME280;7060;43.770;4.008;2023-10-13T10:32:35;101520.28;;;23.03;62.35
13974;BME280;7060;43.770;4.008;2023-10-13T10:35:07;101523.63;;;23.11;61.91
13974;BME280;7060;43.770;4.008;2023-10-13T10:37:38;101519.66;;;23.20;61.59
13974;BME280;7060;43.770;4.008;2023-10-13T10:40:14;101516.31;;;23.25;61.93
13974;BME280;7060;43.770;4.008;2023-10-13T10:42:59;101527.44;;;23.30;61.21
13974;BME280;7060;43.770;4.008;2023-10-13T10:45:48;101516.53;;;23.30;61.23
13974;BME280;7060;43.770;4.008;2023-10-13T10:48:20;101520.94;;;23.31;61.05
13974;BME280;7060;43.770;4.008;2023-10-13T10:50:59;101516.34;;;23.32;61.09
13974;BME280;7060;43.770;4.008;2023-10-13T10:53:35;101510.03;;;23.31;60.93
13974;BME280;7060;43.770;4.008;2023-10-13T10:56:12;101512.53;;;23.39;61.20
13974;BME280;7060;43.770;4.008;2023-10-13T10:59:06;101514.63;;;23.44;60.86
13974;BME280;7060;43.770;4.008;2023-10-13T11:01:44;101505.38;;;23.51;60.56
13974;BME280;7060;43.770;4.008;2023-10-13T11:04:19;101489.22;;;23.37;60.41
13974;BME280;7060;43.770;4.008;2023-10-13T11:07:01;101511.47;;;23.53;60.41
13974;BME280;7060;43.770;4.008;2023-10-13T11:09:32;101516.09;;;23.53;60.18
13974;BME280;7060;43.770;4.008;2023-10-13T11:12:13;101495.72;;;23.55;60.53
13974;BME280;7060;43.770;4.008;2023-10-13T11:15:02;101507.06;;;23.59;60.69
13974;BME280;7060;43.770;4.008;2023-10-13T11:17:33;101503.44;;;23.65;60.70
13974;BME280;7060;43.770;4.008;2023-10-13T11:20:11;101494.03;;;23.61;60.74
13974;BME280;7060;43.770;4.008;2023-10-13T11:22:53;101496.31;;;23.64;60.60
13974;BME280;7060;43.770;4.008;2023-10-13T11:25:26;101498.84;;;23.66;60.41
13974;BME280;7060;43.770;4.008;2023-10-13T11:28:10;101496.31;;;23.71;60.64
13974;BME280;7060;43.770;4.008;2023-10-13T11:30:45;101489.56;;;23.80;60.46
13974;BME280;7060;43.770;4.008;2023-10-13T11:33:18;101486.00;;;23.86;60.20
13974;BME280;7060;43.770;4.008;2023-10-13T11:35:51;101482.00;;;23.88;60.11
13974;BME280;7060;43.770;4.008;2023-10-13T11:38:30;101476.28;;;23.90;59.96
13974;BME280;7060;43.770;4.008;2023-10-13T11:41:11;101463.25;;;23.92;60.02
13974;BME280;7060;43.770;4.008;2023-10-13T11:43:44;101469.13;;;24.02;59.56
13974;BME280;7060;43.770;4.008;2023-10-13T11:46:40;101459.88;;;24.03;59.33
13974;BME280;7060;43.770;4.008;2023-10-13T11:49:23;101464.72;;;24.08;59.04
13974;BME280;7060;43.770;4.008;2023-10-13T11:52:04;101453.81;;;24.01;59.65
13974;BME280;7060;43.770;4.008;2023-10-13T11:54:46;101442.44;;;24.04;59.55
13974;BME280;7060;43.770;4.008;2023-10-13T11:57:17;101442.44;;;24.04;59.54
13974;BME280;7060;43.770;4.008;2023-10-13T11:59:47;101441.81;;;24.09;59.72
13974;BME280;7060;43.770;4.008;2023-10-13T12:02:24;101435.69;;;24.13;59.45
13974;BME280;7060;43.770;4.008;2023-10-13T12:08:54;101422.69;;;24.02;59.67
13974;BME280;7060;43.770;4.008;2023-10-13T12:11:26;101407.09;;;24.16;59.57
13974;BME280;7060;43.770;4.008;2023-10-13T12:14:07;101412.44;;;24.36;59.11
13974;BME280;7060;43.770;4.008;2023-10-13T12:16:47;101381.78;;;24.27;59.13
13974;BME280;7060;43.770;4.008;2023-10-13T12:19:19;101393.81;;;24.51;58.91
13974;BME280;7060;43.770;4.008;2023-10-13T12:21:51;101396.28;;;24.59;58.80
13974;BME280;7060;43.770;4.008;2023-10-13T12:24:21;101390.81;;;24.59;58.21
13974;BME280;7060;43.770;4.008;2023-10-13T12:27:07;101396.13;;;24.47;58.32
13974;BME280;7060;43.770;4.008;2023-10-13T12:29:49;101389.50;;;24.37;58.82
13974;BME280;7060;43.770;4.008;2023-10-13T12:32:19;101391.19;;;24.38;58.96
13974;BME280;7060;43.770;4.008;2023-10-13T12:34:49;101388.94;;;24.28;59.34
13974;BME280;7060;43.770;4.008;2023-10-13T12:37:44;101384.13;;;24.23;59.65
13974;BME280;7060;43.770;4.008;2023-10-13T12:40:19;101389.59;;;24.23;59.89
13974;BME280;7060;43.770;4.008;2023-10-13T12:43:05;101388.75;;;24.23;60.30
13974;BME280;7060;43.770;4.008;2023-10-13T12:45:53;101377.16;;;24.27;60.00
13974;BME280;7060;43.770;4.008;2023-10-13T12:48:42;101377.38;;;24.26;60.33
13974;BME280;7060;43.770;4.008;2023-10-13T12:51:31;101368.69;;;24.36;60.28
13974;BME280;7060;43.770;4.008;2023-10-13T12:54:17;101377.91;;;24.41;59.92
13974;BME280;7060;43.770;4.008;2023-10-13T12:56:50;101377.22;;;24.46;59.34
13974;BME280;7060;43.770;4.008;2023-10-13T12:59:24;101373.66;;;24.45;59.47
13974;BME280;7060;43.770;4.008;2023-10-13T13:01:56;101366.16;;;24.41;59.51
13974;BME280;7060;43.770;4.008;2023-10-13T13:04:25;101364.78;;;24.50;59.17
13974;BME280;7060;43.770;4.008;2023-10-13T13:06:59;101365.84;;;24.49;58.99
13974;BME280;7060;43.770;4.008;2023-10-13T13:09:27;101358.31;;;24.44;59.22
13974;BME280;7060;43.770;4.008;2023-10-13T13:11:58;101359.22;;;24.38;59.19
13974;BME280;7060;43.770;4.008;2023-10-13T13:14:26;101359.88;;;24.34;59.44
13974;BME280;7060;43.770;4.008;2023-10-13T13:16:58;101355.03;;;24.36;59.72
13974;BME280;7060;43.770;4.008;2023-10-13T13:19:32;101339.53;;;24.29;59.70
13974;BME280;7060;43.770;4.008;2023-10-13T13:22:03;101336.97;;;24.35;59.65
13974;BME280;7060;43.770;4.008;2023-10-13T13:24:33;101339.25;;;24.38;59.81
13974;BME280;7060;43.770;4.008;2023-10-13T13:27:01;101347.69;;;24.36;59.44
13974;BME280;7060;43.770;4.008;2023-10-13T13:29:32;101336.31;;;24.39;59.34
13974;BME280;7060;43.770;4.008;2023-10-13T13:32:04;101340.19;;;24.50;59.73
13974;BME280;7060;43.770;4.008;2023-10-13T13:34:44;101340.13;;;24.63;58.97
13974;BME280;7060;43.770;4.008;2023-10-13T13:37:22;101321.53;;;24.72;58.41
13974;BME280;7060;43.770;4.008;2023-10-13T13:39:54;101320.72;;;24.71;58.73
13974;BME280;7060;43.770;4.008;2023-10-13T13:42:23;101333.91;;;24.74;58.35
13974;BME280;7060;43.770;4.008;2023-10-13T13:44:51;101343.03;;;24.68;58.27
13974;BME280;7060;43.770;4.008;2023-10-13T13:47:21;101338.22;;;24.63;58.39
13974;BME280;7060;43.770;4.008;2023-10-13T13:49:50;101338.88;;;24.59;58.23
13974;BME280;7060;43.770;4.008;2023-10-13T13:52:21;101333.22;;;24.54;57.98
13974;BME280;7060;43.770;4.008;2023-10-13T13:55:01;101333.28;;;24.47;58.33
13974;BME280;7060;43.770;4.008;2023-10-13T13:57:30;101330.19;;;24.44;58.53